Archival Weather

Chicago O'Hare International

Chicago, Illinois (KORD)

Report from: Sunday, November 19, 2023 2:51 AM CST
Current time: Monday, July 22, 2024 5:05 AM CDT

Current weather – Weather history – Daily summaries
Weather forecast

Temperature3.3°C (37.9°F)
Dew point-2.8°C (27.0°F)
Winds Calm
Visibility10 mi. (16.1 km)
Clouds Sky clear
Altimeter29.98 in.Hg (1015 mB)
Relative humidity64 %
Density altitude-1,418 ft. (-432 m)
Sea-level pressure101.6 kPa (1016 mB, 29.99 in.Hg)
Remarks Automated weather observing station with precipitation discriminator
Pressure rising, then falling
Flight conditions Visual Meteorological Conditions
Raw dataKORD 190851Z 00000KT 10SM CLR 03/M03 A2998 RMK AO2 SLP155 T00331028 50002
An error has occurred. This application may no longer respond until reloaded. Reload 🗙